Time;durP1;ratioP1;P1;durP2;ratioP2;P2;SDS_P1;SDS_P2;PMS_P1;PMS_P2;Temp;Humidity;BMP_temperature;BMP_pressure;BME280_temperature;BME280_humidity;BME280_pressure;Samples;Min_cycle;Max_cycle;Signal;HPM_P1;HPM_P2
2023/06/06 00:00:54;;;;;;;3.33;1.60;;;;;;;-140.66;100.00;55571.53;5116299;28;20096;-76
2023/06/06 00:03:41;;;;;;;4.78;1.60;;;;;;;-140.66;100.00;55571.53;5115875;28;20027;-77
2023/06/06 00:06:33;;;;;;;5.47;1.40;;;;;;;-140.66;100.00;55571.53;5115899;28;20032;-77
2023/06/06 00:09:18;;;;;;;3.17;1.50;;;;;;;-140.66;100.00;55571.53;5116369;28;20051;-76
2023/06/06 00:12:05;;;;;;;3.08;1.60;;;;;;;-140.66;100.00;55571.53;5100986;28;20119;-75
2023/06/06 00:14:50;;;;;;;5.45;1.70;;;;;;;-140.66;100.00;55571.53;5115576;28;20031;-77
2023/06/06 00:17:38;;;;;;;5.68;1.52;;;;;;;-140.66;100.00;55571.53;5100849;28;20516;-76
2023/06/06 00:20:24;;;;;;;2.17;1.10;;;;;;;-140.66;100.00;55571.53;5116581;28;20085;-76
2023/06/06 00:23:10;;;;;;;3.40;1.40;;;;;;;-140.66;100.00;55571.53;5115452;28;20359;-76
2023/06/06 00:25:56;;;;;;;3.58;1.50;;;;;;;-140.66;100.00;55571.53;5101605;28;20103;-77
2023/06/06 00:28:42;;;;;;;3.15;1.58;;;;;;;-140.66;100.00;55571.53;5116355;28;20096;-76
2023/06/06 00:31:27;;;;;;;4.00;1.70;;;;;;;-140.66;100.00;55571.53;5116234;28;20098;-76
2023/06/06 00:34:13;;;;;;;2.58;1.45;;;;;;;-140.66;100.00;55571.53;5100927;28;20027;-77
2023/06/06 00:36:59;;;;;;;4.35;1.55;;;;;;;-140.66;100.00;55571.53;5115364;28;20047;-77
2023/06/06 00:39:45;;;;;;;3.80;1.40;;;;;;;-140.66;100.00;55571.53;5115992;28;20023;-76
2023/06/06 00:42:31;;;;;;;2.53;1.45;;;;;;;-140.66;100.00;55571.53;5101908;28;20533;-76
2023/06/06 00:45:16;;;;;;;2.65;1.33;;;;;;;-140.66;100.00;55571.53;5115626;28;20028;-76
2023/06/06 00:48:02;;;;;;;4.85;1.63;;;;;;;-140.66;100.00;55571.53;5115729;28;20024;-76
2023/06/06 00:50:50;;;;;;;2.38;1.38;;;;;;;-140.66;100.00;55571.53;5115213;28;20035;-76
2023/06/06 00:53:36;;;;;;;2.53;1.55;;;;;;;-140.66;100.00;55571.53;5115011;28;20039;-77
2023/06/06 00:56:28;;;;;;;2.47;1.48;;;;;;;-140.66;100.00;55571.53;5101233;28;20035;-76
2023/06/06 00:59:15;;;;;;;1.80;1.33;;;;;;;-140.66;100.00;55571.53;5101305;28;20062;-76
2023/06/06 01:02:04;;;;;;;2.72;1.40;;;;;;;-140.66;100.00;55571.53;5115131;28;20041;-76
2023/06/06 01:04:50;;;;;;;3.80;1.52;;;;;;;-140.66;100.00;55571.53;5115470;28;20448;-76
2023/06/06 01:07:37;;;;;;;4.13;1.40;;;;;;;-140.66;100.00;55571.53;5101768;28;20385;-77
2023/06/06 01:10:23;;;;;;;2.97;1.50;;;;;;;-140.66;100.00;55571.53;5101253;28;20094;-77
2023/06/06 01:13:22;;;;;;;2.97;1.52;;;;;;;-140.66;100.00;55571.53;5115326;28;20112;-77
2023/06/06 01:16:15;;;;;;;2.65;1.60;;;;;;;-140.66;100.00;55571.53;5100153;28;20085;-77
2023/06/06 01:19:04;;;;;;;2.42;1.40;;;;;;;-140.66;100.00;55571.53;5100391;28;20469;-77
2023/06/06 01:21:51;;;;;;;3.70;1.40;;;;;;;-140.66;100.00;55571.53;5114844;28;20070;-76
2023/06/06 01:24:37;;;;;;;4.20;1.67;;;;;;;-140.66;100.00;55571.53;5114438;28;20055;-77
2023/06/06 01:27:24;;;;;;;6.15;1.63;;;;;;;-140.66;100.00;55571.53;5115063;28;20115;-78
2023/06/06 01:30:10;;;;;;;2.22;1.35;;;;;;;-140.66;100.00;55571.53;5115457;28;20038;-77
2023/06/06 01:33:24;;;;;;;3.00;1.60;;;;;;;-140.66;100.00;55571.53;5114793;28;20440;-77
2023/06/06 01:36:28;;;;;;;4.25;1.50;;;;;;;-140.66;100.00;55571.53;5100928;28;20042;-77
2023/06/06 01:39:21;;;;;;;3.13;1.65;;;;;;;-140.66;100.00;55571.53;5114971;28;20083;-76
2023/06/06 01:42:08;;;;;;;6.50;1.63;;;;;;;-140.66;100.00;55571.53;5100776;28;20340;-77
2023/06/06 01:44:55;;;;;;;5.85;1.80;;;;;;;-140.66;100.00;55571.53;5115282;28;20023;-77
2023/06/06 01:47:43;;;;;;;4.18;1.70;;;;;;;-140.66;100.00;55571.53;5115555;28;20019;-76
2023/06/06 01:50:30;;;;;;;2.78;1.60;;;;;;;-140.66;100.00;55571.53;5113987;28;20344;-77
2023/06/06 01:53:15;;;;;;;4.43;1.70;;;;;;;-140.66;100.00;55571.53;5114810;28;20031;-77
2023/06/06 01:56:01;;;;;;;3.92;2.00;;;;;;;-140.66;100.00;55571.53;5114626;28;20024;-76
2023/06/06 01:58:48;;;;;;;5.25;1.67;;;;;;;-140.66;100.00;55571.53;5114085;28;20027;-76
2023/06/06 02:01:34;;;;;;;5.30;1.77;;;;;;;-140.66;100.00;55571.53;5098648;28;20520;-76
2023/06/06 02:04:19;;;;;;;2.88;1.60;;;;;;;-140.66;100.00;55571.53;5100915;28;20036;-77
2023/06/06 02:07:05;;;;;;;3.17;1.80;;;;;;;-140.66;100.00;55571.53;5114368;28;20030;-77
2023/06/06 02:09:51;;;;;;;5.70;2.30;;;;;;;-140.66;100.00;55571.53;5113761;28;20031;-77
2023/06/06 02:12:37;;;;;;;8.45;1.90;;;;;;;-140.66;100.00;55571.53;5114639;28;20047;-76
2023/06/06 02:15:26;;;;;;;6.60;2.22;;;;;;;-140.66;100.00;55571.53;5114077;28;20451;-77
2023/06/06 02:18:12;;;;;;;6.90;1.70;;;;;;;-140.66;100.00;55571.53;5114562;28;20470;-76
2023/06/06 02:20:57;;;;;;;5.43;2.20;;;;;;;-140.66;100.00;55571.53;5113841;28;20085;-77
2023/06/06 02:23:43;;;;;;;5.25;1.80;;;;;;;-140.66;100.00;55571.53;5100555;28;20023;-77
2023/06/06 02:26:31;;;;;;;6.70;2.05;;;;;;;-140.66;100.00;55571.53;5100101;28;20024;-76
2023/06/06 02:29:17;;;;;;;4.70;1.90;;;;;;;-140.66;100.00;55571.53;5099352;28;20047;-76
2023/06/06 02:32:03;;;;;;;6.80;2.30;;;;;;;-140.66;100.00;55571.53;5115455;28;20039;-76
2023/06/06 02:34:49;;;;;;;5.70;1.95;;;;;;;-140.66;100.00;55571.53;5114535;28;20054;-76
2023/06/06 02:37:34;;;;;;;5.93;2.13;;;;;;;-140.66;100.00;55571.53;5117654;28;20092;-74
2023/06/06 02:40:20;;;;;;;5.45;2.25;;;;;;;-140.66;100.00;55571.53;5109736;28;20027;-74
2023/06/06 02:43:06;;;;;;;7.22;2.88;;;;;;;-140.66;100.00;55571.53;5109996;28;20035;-75
2023/06/06 02:45:52;;;;;;;4.30;2.03;;;;;;;-140.66;100.00;55571.53;5124059;28;20083;-76
2023/06/06 02:48:38;;;;;;;8.35;2.50;;;;;;;-140.66;100.00;55571.53;5106091;28;20024;-77
2023/06/06 02:51:24;;;;;;;6.00;2.63;;;;;;;-140.66;100.00;55571.53;5099455;28;20035;-77
2023/06/06 02:54:09;;;;;;;6.25;2.53;;;;;;;-140.66;100.00;55571.53;5100228;28;20039;-77
2023/06/06 02:56:55;;;;;;;4.15;2.45;;;;;;;-140.66;100.00;55571.53;5099736;28;20048;-77
2023/06/06 02:59:41;;;;;;;4.90;2.60;;;;;;;-140.66;100.00;55571.53;5099301;28;20533;-76
2023/06/06 03:02:27;;;;;;;7.00;2.70;;;;;;;-140.66;100.00;55571.53;5114320;28;20112;-77
2023/06/06 03:05:13;;;;;;;8.50;2.47;;;;;;;-140.66;100.00;55571.53;5113181;28;20020;-76
2023/06/06 03:08:00;;;;;;;7.68;2.83;;;;;;;-140.66;100.00;55571.53;5113744;28;20023;-77
2023/06/06 03:10:51;;;;;;;5.75;2.70;;;;;;;-140.66;100.00;55571.53;5112738;28;20048;-77
2023/06/06 03:13:37;;;;;;;8.32;2.65;;;;;;;-140.66;100.00;55571.53;5098536;28;20027;-77
2023/06/06 03:16:26;;;;;;;5.72;2.47;;;;;;;-140.66;100.00;55571.53;5100020;28;20085;-76
2023/06/06 03:19:12;;;;;;;7.40;2.47;;;;;;;-140.66;100.00;55571.53;5099098;28;20452;-76
2023/06/06 03:21:59;;;;;;;8.98;2.45;;;;;;;-140.66;100.00;55571.53;5098963;28;20036;-77
2023/06/06 03:24:45;;;;;;;5.70;2.40;;;;;;;-140.66;100.00;55571.53;5099181;28;20062;-76
2023/06/06 03:27:31;;;;;;;9.00;2.90;;;;;;;-140.66;100.00;55571.53;5100703;28;20518;-76
2023/06/06 03:30:17;;;;;;;6.78;2.55;;;;;;;-140.66;100.00;55571.53;5101455;28;20130;-76
2023/06/06 03:33:05;;;;;;;5.88;2.72;;;;;;;-140.66;100.00;55571.53;5104101;28;20111;-76
2023/06/06 03:35:51;;;;;;;8.48;2.83;;;;;;;-140.66;100.00;55571.53;5116965;28;20506;-77
2023/06/06 03:38:37;;;;;;;6.65;2.58;;;;;;;-140.66;100.00;55571.53;5125349;28;20055;-76
2023/06/06 03:41:23;;;;;;;4.88;2.65;;;;;;;-140.66;100.00;55571.53;5118571;28;20058;-76
2023/06/06 03:44:08;;;;;;;5.78;2.50;;;;;;;-140.66;100.00;55571.53;5117905;28;20093;-78
2023/06/06 03:46:54;;;;;;;5.80;2.33;;;;;;;-140.66;100.00;55571.53;5126227;28;20442;-76
2023/06/06 03:49:40;;;;;;;4.60;2.47;;;;;;;-140.66;100.00;55571.53;5111516;28;20030;-76
2023/06/06 03:52:26;;;;;;;5.88;2.88;;;;;;;-140.66;100.00;55571.53;5120339;28;20419;-76
2023/06/06 03:55:11;;;;;;;7.38;3.08;;;;;;;-140.66;100.00;55571.53;5116967;28;20096;-76
2023/06/06 03:57:57;;;;;;;7.18;2.90;;;;;;;-140.66;100.00;55571.53;5103109;28;20521;-77
2023/06/06 04:00:44;;;;;;;8.75;3.22;;;;;;;-140.66;100.00;55571.53;5116461;28;20349;-77
2023/06/06 04:03:36;;;;;;;8.63;3.10;;;;;;;-140.66;100.00;55571.53;5116255;28;20042;-76
2023/06/06 04:06:22;;;;;;;8.32;3.47;;;;;;;-140.66;100.00;55571.53;5108132;28;20030;-75
2023/06/06 04:09:08;;;;;;;6.50;2.95;;;;;;;-140.66;100.00;55571.53;5117197;28;20078;-77
2023/06/06 04:11:54;;;;;;;4.97;2.55;;;;;;;-140.66;100.00;55571.53;5116544;28;20062;-76
2023/06/06 04:14:40;;;;;;;7.05;3.10;;;;;;;-140.66;100.00;55571.53;5101513;28;20080;-75
2023/06/06 04:17:26;;;;;;;4.75;2.63;;;;;;;-140.66;100.00;55571.53;5116162;28;20472;-76
2023/06/06 04:20:12;;;;;;;8.18;3.03;;;;;;;-140.66;100.00;55571.53;5120686;28;20023;-77
2023/06/06 04:23:00;;;;;;;9.40;2.80;;;;;;;-140.66;100.00;55571.53;5105675;28;20020;-76
2023/06/06 04:25:46;;;;;;;4.95;2.90;;;;;;;-140.66;100.00;55571.53;5117415;28;20031;-73
2023/06/06 04:28:32;;;;;;;6.78;2.65;;;;;;;-140.66;100.00;55571.53;5116355;28;20406;-75
2023/06/06 04:31:20;;;;;;;7.60;3.15;;;;;;;-140.66;100.00;55571.53;5117291;28;20019;-75
2023/06/06 04:34:05;;;;;;;6.68;3.10;;;;;;;-140.66;100.00;55571.53;5101424;28;20024;-76
2023/06/06 04:36:52;;;;;;;7.40;3.33;;;;;;;-140.66;100.00;55571.53;5102283;28;20136;-75
2023/06/06 04:39:39;;;;;;;6.90;2.85;;;;;;;-140.66;100.00;55571.53;5116171;28;20038;-75
2023/06/06 04:42:26;;;;;;;7.72;3.58;;;;;;;-140.66;100.00;55571.53;5116175;28;20106;-76
2023/06/06 04:45:13;;;;;;;15.27;3.60;;;;;;;-140.66;100.00;55571.53;5115887;28;20325;-75
2023/06/06 04:47:59;;;;;;;9.35;3.17;;;;;;;-140.66;100.00;55571.53;5116175;28;20425;-76
2023/06/06 04:50:47;;;;;;;11.65;3.40;;;;;;;-140.66;100.00;55571.53;5100493;28;20030;-75
2023/06/06 04:53:33;;;;;;;13.38;3.47;;;;;;;-140.66;100.00;55571.53;5117113;28;20114;-75
2023/06/06 04:56:19;;;;;;;8.25;3.15;;;;;;;-140.66;100.00;55571.53;5115329;28;20027;-75
2023/06/06 04:59:05;;;;;;;8.50;3.42;;;;;;;-140.66;100.00;55571.53;5116064;28;20035;-75
2023/06/06 05:01:52;;;;;;;10.15;3.00;;;;;;;-140.66;100.00;55571.53;5116713;28;20073;-75
2023/06/06 05:04:40;;;;;;;6.03;3.00;;;;;;;-140.66;100.00;55571.53;5116219;28;20038;-76
2023/06/06 05:07:26;;;;;;;8.32;3.60;;;;;;;-140.66;100.00;55571.53;5115364;28;20351;-75
2023/06/06 05:10:12;;;;;;;6.13;3.25;;;;;;;-140.66;100.00;55571.53;5100834;28;20125;-75
2023/06/06 05:12:58;;;;;;;7.63;3.53;;;;;;;-140.66;100.00;55571.53;5115367;28;20394;-76
2023/06/06 05:15:43;;;;;;;7.70;3.30;;;;;;;-140.66;100.00;55571.53;5115482;28;20504;-76
2023/06/06 05:18:30;;;;;;;5.53;3.30;;;;;;;-140.66;100.00;55571.53;5115372;28;20054;-75
2023/06/06 05:21:16;;;;;;;8.02;3.33;;;;;;;-140.66;100.00;55571.53;5100774;28;20034;-76
2023/06/06 05:24:02;;;;;;;9.60;3.20;;;;;;;-140.66;100.00;55571.53;5115780;28;20031;-75
2023/06/06 05:26:48;;;;;;;10.30;3.28;;;;;;;-140.66;100.00;55571.53;5115082;28;20023;-76
2023/06/06 05:29:34;;;;;;;14.63;3.15;;;;;;;-140.66;100.00;55571.53;5099814;28;20047;-75
2023/06/06 05:32:20;;;;;;;7.88;3.08;;;;;;;-140.66;100.00;55571.53;5114636;28;20031;-76
2023/06/06 05:35:07;;;;;;;4.43;2.55;;;;;;;-140.66;100.00;55571.53;5100781;28;20066;-76
2023/06/06 05:37:52;;;;;;;9.95;3.10;;;;;;;-140.66;100.00;55571.53;5100010;28;20024;-75
2023/06/06 05:40:38;;;;;;;5.85;3.33;;;;;;;-140.66;100.00;55571.53;5115753;28;20027;-75
2023/06/06 05:43:25;;;;;;;8.68;2.90;;;;;;;-140.66;100.00;55571.53;5107080;28;20093;-75
2023/06/06 05:46:11;;;;;;;10.30;2.90;;;;;;;-140.66;100.00;55571.53;5099642;28;20038;-75
2023/06/06 05:48:57;;;;;;;8.52;2.40;;;;;;;-140.66;100.00;55571.53;5115428;28;20073;-75
2023/06/06 05:51:43;;;;;;;7.07;2.42;;;;;;;-140.66;100.00;55571.53;5100545;28;20039;-75
2023/06/06 05:54:29;;;;;;;12.82;2.97;;;;;;;-140.66;100.00;55571.53;5114660;28;20027;-76
2023/06/06 05:57:22;;;;;;;5.90;2.67;;;;;;;-140.66;100.00;55571.53;5100205;28;20385;-75
2023/06/06 06:00:09;;;;;;;7.75;2.40;;;;;;;-140.66;100.00;55571.53;5113793;28;20475;-75
2023/06/06 06:02:58;;;;;;;7.53;2.70;;;;;;;-140.66;100.00;55571.53;5115586;28;20110;-75
2023/06/06 06:05:44;;;;;;;6.25;2.67;;;;;;;-140.66;100.00;55571.53;5114477;28;20371;-76
2023/06/06 06:08:31;;;;;;;5.47;2.15;;;;;;;-140.66;100.00;55571.53;5115380;28;20096;-75
2023/06/06 06:11:18;;;;;;;5.15;2.13;;;;;;;-140.66;100.00;55571.53;5114005;28;20471;-76
2023/06/06 06:14:04;;;;;;;7.82;2.55;;;;;;;-140.66;100.00;55571.53;5114922;28;20130;-76
2023/06/06 06:16:50;;;;;;;12.07;2.90;;;;;;;-140.66;100.00;55571.53;5099403;28;20059;-75
2023/06/06 06:19:35;;;;;;;5.60;2.40;;;;;;;-140.66;100.00;55571.53;5100318;28;20111;-75
2023/06/06 06:22:22;;;;;;;4.45;2.40;;;;;;;-140.66;100.00;55571.53;5099687;28;20074;-75
2023/06/06 06:25:12;;;;;;;7.53;4.60;;;;;;;-140.66;100.00;55571.53;5115856;28;20031;-75
2023/06/06 06:27:58;;;;;;;5.95;2.58;;;;;;;-140.66;100.00;55571.53;5100777;28;20055;-77
2023/06/06 06:30:44;;;;;;;8.52;2.40;;;;;;;-140.66;100.00;55571.53;5100989;28;20418;-75
2023/06/06 06:33:33;;;;;;;12.32;4.07;;;;;;;-140.66;100.00;55571.53;5098503;28;20027;-75
2023/06/06 06:36:20;;;;;;;4.72;2.28;;;;;;;-140.66;100.00;55571.53;5114040;28;20126;-75
2023/06/06 06:39:06;;;;;;;4.05;2.63;;;;;;;-140.66;100.00;55571.53;5098612;28;20020;-75
2023/06/06 06:41:52;;;;;;;10.45;2.88;;;;;;;-140.66;100.00;55571.53;5099799;28;20034;-75
2023/06/06 06:44:38;;;;;;;7.13;2.45;;;;;;;-140.66;100.00;55571.53;5115165;28;20047;-75
2023/06/06 06:47:24;;;;;;;4.82;2.22;;;;;;;-140.66;100.00;55571.53;5113714;28;20027;-75
2023/06/06 06:50:11;;;;;;;8.20;2.20;;;;;;;-140.66;100.00;55571.53;5112406;28;20038;-75
2023/06/06 06:52:56;;;;;;;13.68;2.72;;;;;;;-140.66;100.00;55571.53;5113754;28;20409;-75
2023/06/06 06:55:44;;;;;;;9.73;2.60;;;;;;;-140.66;100.00;55571.53;5114696;28;20023;-74
2023/06/06 06:58:33;;;;;;;13.30;2.75;;;;;;;-140.66;100.00;55571.53;5114043;28;20403;-74
2023/06/06 07:01:20;;;;;;;9.75;2.63;;;;;;;-140.66;100.00;55571.53;5114499;28;20035;-75
2023/06/06 07:04:08;;;;;;;9.90;2.90;;;;;;;-140.66;100.00;55571.53;5103277;28;20057;-75
2023/06/06 07:06:55;;;;;;;5.18;2.30;;;;;;;-140.66;100.00;55571.53;5117952;28;20028;-75
2023/06/06 07:09:40;;;;;;;5.25;2.38;;;;;;;-140.66;100.00;55571.53;5117527;28;20169;-75
2023/06/06 07:12:26;;;;;;;11.40;2.40;;;;;;;-140.66;100.00;55571.53;5116985;28;20367;-75
2023/06/06 07:15:12;;;;;;;10.40;2.55;;;;;;;-140.66;100.00;55571.53;5103983;28;20039;-76
2023/06/06 07:17:58;;;;;;;5.13;2.55;;;;;;;-140.66;100.00;55571.53;5117943;28;20039;-77
2023/06/06 07:20:44;;;;;;;4.20;2.10;;;;;;;-140.66;100.00;55571.53;5118091;28;20102;-75
2023/06/06 07:23:31;;;;;;;4.40;2.20;;;;;;;-140.66;100.00;55571.53;5117922;28;20031;-75
2023/06/06 07:26:19;;;;;;;5.47;2.30;;;;;;;-140.66;100.00;55571.53;5103215;28;20063;-74
2023/06/06 07:29:05;;;;;;;15.50;2.78;;;;;;;-140.66;100.00;55571.53;5117816;28;20019;-75
2023/06/06 07:31:50;;;;;;;8.15;2.65;;;;;;;-140.66;100.00;55571.53;5117330;28;20038;-75
2023/06/06 07:34:36;;;;;;;5.25;2.53;;;;;;;-140.66;100.00;55571.53;5117188;28;20023;-75
2023/06/06 07:37:22;;;;;;;10.38;2.40;;;;;;;-140.66;100.00;55571.53;5117289;28;20034;-75
2023/06/06 07:40:11;;;;;;;5.70;2.50;;;;;;;-140.66;100.00;55571.53;5106239;28;20030;-74
2023/06/06 07:42:57;;;;;;;10.23;2.45;;;;;;;-140.66;100.00;55571.53;5127905;28;20114;-74
2023/06/06 07:45:43;;;;;;;12.27;2.83;;;;;;;-140.66;100.00;55571.53;5125648;28;20027;-74
2023/06/06 07:48:28;;;;;;;9.35;2.45;;;;;;;-140.66;100.00;55571.53;5117270;28;20439;-75
2023/06/06 07:51:14;;;;;;;9.07;2.42;;;;;;;-140.66;100.00;55571.53;5102400;28;20054;-74
2023/06/06 07:54:00;;;;;;;6.72;2.10;;;;;;;-140.66;100.00;55571.53;5124241;28;20063;-75
2023/06/06 07:57:06;;;;;;;;;;;;;;;;;;;;;
2023/06/06 07:59:53;;;;;;;8.25;3.35;;;;;;;-140.66;100.00;55571.53;5117637;28;20103;-76
2023/06/06 08:02:40;;;;;;;11.55;2.20;;;;;;;-140.66;100.00;55571.53;5103834;28;20035;-74
2023/06/06 08:05:26;;;;;;;8.95;2.47;;;;;;;-140.66;100.00;55571.53;5132802;28;20040;-82
2023/06/06 08:08:12;;;;;;;8.02;2.70;;;;;;;-140.66;100.00;55571.53;5118451;28;20016;-81
2023/06/06 08:10:57;;;;;;;6.43;2.60;;;;;;;-140.66;100.00;55571.53;5109120;28;20070;-81
2023/06/06 08:13:46;;;;;;;9.02;2.67;;;;;;;-140.66;100.00;55571.53;5118809;28;20016;-81
2023/06/06 08:16:32;;;;;;;6.22;2.20;;;;;;;-140.66;100.00;55571.53;5115631;28;20363;-81
2023/06/06 08:19:18;;;;;;;9.98;2.50;;;;;;;-140.66;100.00;55571.53;5110004;28;20459;-82
2023/06/06 08:22:04;;;;;;;6.22;2.42;;;;;;;-140.66;100.00;55571.53;5122577;28;20081;-80
2023/06/06 08:24:50;;;;;;;5.13;2.45;;;;;;;-140.66;100.00;55571.53;5100521;28;20035;-75
2023/06/06 08:27:36;;;;;;;4.10;2.20;;;;;;;-140.66;100.00;55571.53;5116251;28;20016;-76
2023/06/06 08:30:22;;;;;;;13.02;3.20;;;;;;;-140.66;100.00;55571.53;5116460;28;20096;-75
2023/06/06 08:33:08;;;;;;;8.35;2.25;;;;;;;-140.66;100.00;55571.53;5115691;28;20035;-76
2023/06/06 08:35:53;;;;;;;6.60;2.28;;;;;;;-140.66;100.00;55571.53;5102267;28;20024;-76
2023/06/06 08:38:39;;;;;;;11.82;2.75;;;;;;;-140.66;100.00;55571.53;5117384;28;20458;-75
2023/06/06 08:41:26;;;;;;;5.78;2.40;;;;;;;-140.66;100.00;55571.53;5104403;28;20428;-76
2023/06/06 08:44:12;;;;;;;6.03;2.20;;;;;;;-140.66;100.00;55571.53;5116666;28;20031;-74
2023/06/06 08:47:01;;;;;;;8.90;2.70;;;;;;;-140.66;100.00;55571.53;5101606;28;20023;-74
2023/06/06 08:49:47;;;;;;;8.38;2.63;;;;;;;-140.66;100.00;55571.53;5115941;28;20051;-74
2023/06/06 08:52:34;;;;;;;6.57;2.65;;;;;;;-140.66;100.00;55571.53;5124834;28;20081;-75
2023/06/06 08:55:21;;;;;;;6.43;2.55;;;;;;;-140.66;100.00;55571.53;5128120;28;20038;-74
2023/06/06 08:58:07;;;;;;;6.53;2.60;;;;;;;-140.66;100.00;55571.53;5114281;28;20027;-75
2023/06/06 09:00:58;;;;;;;6.85;2.85;;;;;;;-140.66;100.00;55571.53;5117209;28;20116;-76
2023/06/06 09:03:45;;;;;;;6.70;2.70;;;;;;;-140.66;100.00;55571.53;5116717;28;20038;-74
2023/06/06 09:06:31;;;;;;;13.43;2.70;;;;;;;-140.66;100.00;55571.53;5116203;28;20383;-75
2023/06/06 09:09:19;;;;;;;6.22;2.60;;;;;;;-140.66;100.00;55571.53;5100791;28;20023;-76
2023/06/06 09:12:07;;;;;;;9.82;2.55;;;;;;;-140.66;100.00;55571.53;5101236;28;20130;-75
2023/06/06 09:14:52;;;;;;;5.18;2.70;;;;;;;-140.66;100.00;55571.53;5116530;28;20031;-75
2023/06/06 09:17:39;;;;;;;8.10;2.65;;;;;;;-140.66;100.00;55571.53;5117651;28;20027;-81
2023/06/06 09:20:25;;;;;;;4.30;2.45;;;;;;;-140.66;100.00;55571.53;5120443;28;20024;-82
2023/06/06 09:23:14;;;;;;;8.52;2.58;;;;;;;-140.66;100.00;55571.53;5118536;28;20042;-75
2023/06/06 09:26:01;;;;;;;5.22;2.65;;;;;;;-140.66;100.00;55571.53;5115639;28;20384;-76
2023/06/06 09:28:48;;;;;;;7.30;2.40;;;;;;;-140.66;100.00;55571.53;5115723;28;20027;-75
2023/06/06 09:31:37;;;;;;;5.25;2.60;;;;;;;-140.66;100.00;55571.53;5114559;28;20027;-75
2023/06/06 09:34:25;;;;;;;9.38;2.97;;;;;;;-140.66;100.00;55571.53;5120483;28;20028;-81
2023/06/06 09:37:14;;;;;;;6.53;2.42;;;;;;;-140.66;100.00;55571.53;5105480;28;20023;-82
2023/06/06 09:40:13;;;;;;;7.63;2.65;;;;;;;-140.66;100.00;55571.53;5121936;28;20035;-82
2023/06/06 09:42:59;;;;;;;6.47;2.22;;;;;;;-140.66;100.00;55571.53;5123526;28;20028;-81
2023/06/06 09:45:54;;;;;;;7.60;3.28;;;;;;;-140.66;100.00;55571.53;5121097;28;20027;-79
2023/06/06 09:48:40;;;;;;;11.38;2.80;;;;;;;-140.66;100.00;55571.53;5114708;28;20039;-75
2023/06/06 09:51:29;;;;;;;5.72;2.40;;;;;;;-140.66;100.00;55571.53;5114535;28;20027;-75
2023/06/06 09:54:15;;;;;;;4.38;2.30;;;;;;;-140.66;100.00;55571.53;5102437;28;20035;-81
2023/06/06 09:57:13;;;;;;;12.95;2.67;;;;;;;-140.66;100.00;55571.53;5116663;28;20027;-81
2023/06/06 10:00:01;;;;;;;4.30;2.70;;;;;;;-140.66;100.00;55571.53;5103591;28;20042;-81
2023/06/06 10:02:48;;;;;;;7.68;3.00;;;;;;;-140.66;100.00;55571.53;5119963;28;20027;-81
2023/06/06 10:05:35;;;;;;;11.40;3.05;;;;;;;-140.66;100.00;55571.53;5118157;28;20038;-81
2023/06/06 10:08:23;;;;;;;8.13;2.75;;;;;;;-140.66;100.00;55571.53;5103651;28;20535;-81
2023/06/06 10:11:09;;;;;;;6.65;2.80;;;;;;;-140.66;100.00;55571.53;5109186;28;20050;-81
2023/06/06 10:13:56;;;;;;;14.02;3.08;;;;;;;-140.66;100.00;55571.53;5099893;28;20123;-81
2023/06/06 10:16:41;;;;;;;8.48;2.50;;;;;;;-140.66;100.00;55571.53;5097725;28;20102;-81
2023/06/06 10:19:28;;;;;;;7.00;2.70;;;;;;;-140.66;100.00;55571.53;5079972;28;20027;-75
2023/06/06 10:22:14;;;;;;;6.88;2.63;;;;;;;-140.66;100.00;55571.53;5092859;28;20036;-75
2023/06/06 10:25:01;;;;;;;9.68;2.90;;;;;;;-140.66;100.00;55571.53;5094786;28;20032;-75
2023/06/06 10:27:55;;;;;;;10.70;3.03;;;;;;;-140.66;100.00;55571.53;5078800;28;20035;-75
2023/06/06 10:30:43;;;;;;;9.70;2.80;;;;;;;-140.66;100.00;55571.53;5094371;28;20027;-73
2023/06/06 10:33:37;;;;;;;7.05;2.90;;;;;;;-140.66;100.00;55571.53;5093548;28;20379;-76
2023/06/06 10:36:23;;;;;;;9.70;3.17;;;;;;;-140.66;100.00;55571.53;5096633;28;20035;-76
2023/06/06 10:39:29;;;;;;;8.63;3.75;;;;;;;-140.66;100.00;55571.53;5098269;28;20025;-77
2023/06/06 10:42:15;;;;;;;7.90;2.60;;;;;;;-140.66;100.00;55571.53;5097743;28;20023;-76
2023/06/06 10:45:01;;;;;;;6.43;2.70;;;;;;;-140.66;100.00;55571.53;5082303;28;20042;-76
2023/06/06 10:47:47;;;;;;;8.52;2.97;;;;;;;-140.66;100.00;55571.53;5097707;28;20097;-76
2023/06/06 10:50:33;;;;;;;6.95;3.38;;;;;;;-140.66;100.00;55571.53;5098251;28;20075;-76
2023/06/06 10:53:19;;;;;;;8.02;2.50;;;;;;;-140.66;100.00;55571.53;5097401;28;20083;-75
2023/06/06 10:56:08;;;;;;;4.00;2.90;;;;;;;-140.66;100.00;55571.53;5098077;28;20032;-75
2023/06/06 10:58:54;;;;;;;5.60;2.80;;;;;;;-140.66;100.00;55571.53;5096913;28;20074;-76
2023/06/06 11:01:40;;;;;;;6.90;2.70;;;;;;;-140.66;100.00;55571.53;5097550;28;20036;-75
2023/06/06 11:04:29;;;;;;;7.82;2.75;;;;;;;-140.66;100.00;55571.53;5082414;28;20050;-74
2023/06/06 11:07:16;;;;;;;6.60;3.13;;;;;;;-140.66;100.00;55571.53;5097285;28;20108;-75
2023/06/06 11:10:02;;;;;;;6.10;2.78;;;;;;;-140.66;100.00;55571.53;5081953;28;20031;-75
2023/06/06 11:12:51;;;;;;;6.95;3.05;;;;;;;-140.66;100.00;55571.53;5103051;28;20074;-75
2023/06/06 11:15:37;;;;;;;6.55;2.88;;;;;;;-140.66;100.00;55571.53;5118251;28;20092;-75
2023/06/06 11:18:36;;;;;;;6.35;2.90;;;;;;;-140.66;100.00;55571.53;5119448;28;20024;-81
2023/06/06 11:21:24;;;;;;;47.85;6.00;;;;;;;-140.66;100.00;55571.53;5122544;28;20047;-81
2023/06/06 11:24:10;;;;;;;5.00;2.72;;;;;;;-140.66;100.00;55571.53;5109418;28;20046;-81
2023/06/06 11:26:57;;;;;;;5.85;2.58;;;;;;;-140.66;100.00;55571.53;5122041;28;20459;-81
2023/06/06 11:29:45;;;;;;;22.92;4.00;;;;;;;-140.66;100.00;55571.53;5103903;28;20065;-80
2023/06/06 11:32:32;;;;;;;8.48;3.17;;;;;;;-140.66;100.00;55571.53;5104289;28;20034;-81
2023/06/06 11:35:20;;;;;;;7.13;3.17;;;;;;;-140.66;100.00;55571.53;5105008;28;20031;-80
2023/06/06 11:38:06;;;;;;;12.30;3.05;;;;;;;-140.66;100.00;55571.53;5119654;28;20027;-81
2023/06/06 11:40:51;;;;;;;7.32;3.08;;;;;;;-140.66;100.00;55571.53;5105920;28;20055;-80
2023/06/06 11:43:47;;;;;;;5.65;3.17;;;;;;;-140.66;100.00;55571.53;5105224;28;20452;-81
2023/06/06 11:46:53;;;;;;;11.07;2.95;;;;;;;-140.66;100.00;55571.53;5119836;28;20459;-81
2023/06/06 11:49:44;;;;;;;5.78;2.80;;;;;;;-140.66;100.00;55571.53;5119834;28;20023;-81
2023/06/06 11:52:30;;;;;;;4.57;2.70;;;;;;;-140.66;100.00;55571.53;5121592;28;20023;-82
2023/06/06 11:55:17;;;;;;;4.53;3.08;;;;;;;-140.66;100.00;55571.53;5109142;28;20028;-80
2023/06/06 11:58:05;;;;;;;9.77;3.10;;;;;;;-140.66;100.00;55571.53;5125501;28;20375;-81
2023/06/06 12:00:56;;;;;;;4.13;2.85;;;;;;;-140.66;100.00;55571.53;5109248;28;20028;-80
2023/06/06 12:03:42;;;;;;;6.50;3.13;;;;;;;-140.66;100.00;55571.53;5113048;28;20035;-81
2023/06/06 12:06:28;;;;;;;12.02;3.08;;;;;;;-140.66;100.00;55571.53;5123572;28;20164;-80
2023/06/06 12:09:16;;;;;;;7.30;2.92;;;;;;;-140.66;100.00;55571.53;5123975;28;20056;-81
2023/06/06 12:12:04;;;;;;;6.80;3.17;;;;;;;-140.66;100.00;55571.53;5122293;28;20047;-82
2023/06/06 12:14:59;;;;;;;7.00;2.95;;;;;;;-140.66;100.00;55571.53;5118842;28;20525;-75
2023/06/06 12:17:45;;;;;;;5.78;3.00;;;;;;;-140.66;100.00;55571.53;5116229;28;20027;-75
2023/06/06 12:20:31;;;;;;;10.27;3.22;;;;;;;-140.66;100.00;55571.53;5099687;28;20024;-74
2023/06/06 12:23:30;;;;;;;5.05;3.10;;;;;;;-140.66;100.00;55571.53;5080847;28;20032;-72
2023/06/06 12:26:16;;;;;;;9.20;3.08;;;;;;;-140.66;100.00;55571.53;5096043;28;20353;-73
2023/06/06 12:29:08;;;;;;;8.68;3.22;;;;;;;-140.66;100.00;55571.53;5099034;28;20032;-73
2023/06/06 12:32:12;;;;;;;5.60;3.20;;;;;;;-140.66;100.00;55571.53;5096285;28;20364;-74
2023/06/06 12:35:01;;;;;;;6.22;2.97;;;;;;;-140.66;100.00;55571.53;5096279;28;20047;-73
2023/06/06 12:37:47;;;;;;;5.97;2.92;;;;;;;-140.66;100.00;55571.53;5096405;28;20020;-74
2023/06/06 12:40:37;;;;;;;6.30;2.97;;;;;;;-140.66;100.00;55571.53;5099788;28;20028;-74